sensor_id;sensor_type;location;lat;lon;timestamp;P1;durP1;ratioP1;P2;durP2;ratioP2
12585;SDS011;6358;50.760;0.282;2023-06-22T00:01:12;2.67;;;2.20;;
12585;SDS011;6358;50.760;0.282;2023-06-22T00:03:38;2.30;;;2.10;;
12585;SDS011;6358;50.760;0.282;2023-06-22T00:06:04;2.20;;;2.00;;
12585;SDS011;6358;50.760;0.282;2023-06-22T00:08:30;2.53;;;2.10;;
12585;SDS011;6358;50.760;0.282;2023-06-22T00:10:56;1.90;;;1.80;;
12585;SDS011;6358;50.760;0.282;2023-06-22T00:13:22;2.40;;;2.20;;
12585;SDS011;6358;50.760;0.282;2023-06-22T00:15:48;2.17;;;2.08;;
12585;SDS011;6358;50.760;0.282;2023-06-22T00:18:14;2.40;;;2.20;;
12585;SDS011;6358;50.760;0.282;2023-06-22T00:20:41;3.97;;;2.50;;
12585;SDS011;6358;50.760;0.282;2023-06-22T00:23:07;2.45;;;2.25;;
12585;SDS011;6358;50.760;0.282;2023-06-22T00:25:34;2.45;;;2.25;;
12585;SDS011;6358;50.760;0.282;2023-06-22T00:28:01;2.10;;;2.00;;
12585;SDS011;6358;50.760;0.282;2023-06-22T00:30:27;2.10;;;2.00;;
12585;SDS011;6358;50.760;0.282;2023-06-22T00:32:53;3.05;;;2.20;;
12585;SDS011;6358;50.760;0.282;2023-06-22T00:35:19;2.78;;;2.58;;
12585;SDS011;6358;50.760;0.282;2023-06-22T00:37:45;3.28;;;2.45;;
12585;SDS011;6358;50.760;0.282;2023-06-22T00:40:11;2.70;;;2.50;;
12585;SDS011;6358;50.760;0.282;2023-06-22T00:42:39;2.83;;;2.55;;
12585;SDS011;6358;50.760;0.282;2023-06-22T00:45:05;2.40;;;2.20;;
12585;SDS011;6358;50.760;0.282;2023-06-22T00:47:32;2.60;;;2.40;;
12585;SDS011;6358;50.760;0.282;2023-06-22T00:49:59;4.00;;;2.45;;
12585;SDS011;6358;50.760;0.282;2023-06-22T00:52:25;2.83;;;2.40;;
12585;SDS011;6358;50.760;0.282;2023-06-22T00:54:54;2.40;;;2.20;;
12585;SDS011;6358;50.760;0.282;2023-06-22T00:57:21;2.00;;;1.90;;
12585;SDS011;6358;50.760;0.282;2023-06-22T00:59:48;2.50;;;2.35;;
12585;SDS011;6358;50.760;0.282;2023-06-22T01:02:14;2.55;;;2.13;;
12585;SDS011;6358;50.760;0.282;2023-06-22T01:04:40;2.70;;;2.38;;
12585;SDS011;6358;50.760;0.282;2023-06-22T01:12:38;3.85;;;2.70;;
12585;SDS011;6358;50.760;0.282;2023-06-22T01:15:10;2.90;;;2.70;;
12585;SDS011;6358;50.760;0.282;2023-06-22T01:17:37;2.47;;;2.35;;
12585;SDS011;6358;50.760;0.282;2023-06-22T01:20:06;2.97;;;2.78;;
12585;SDS011;6358;50.760;0.282;2023-06-22T01:22:46;2.85;;;2.55;;
12585;SDS011;6358;50.760;0.282;2023-06-22T01:25:23;3.78;;;2.25;;
12585;SDS011;6358;50.760;0.282;2023-06-22T01:27:55;2.42;;;2.22;;
12585;SDS011;6358;50.760;0.282;2023-06-22T01:30:25;3.10;;;2.65;;
12585;SDS011;6358;50.760;0.282;2023-06-22T01:32:51;3.72;;;2.58;;
12585;SDS011;6358;50.760;0.282;2023-06-22T01:35:18;2.85;;;2.47;;
12585;SDS011;6358;50.760;0.282;2023-06-22T01:37:45;2.60;;;2.40;;
12585;SDS011;6358;50.760;0.282;2023-06-22T01:40:12;2.92;;;2.70;;
12585;SDS011;6358;50.760;0.282;2023-06-22T01:42:38;2.08;;;1.95;;
12585;SDS011;6358;50.760;0.282;2023-06-22T01:45:05;2.60;;;2.40;;
12585;SDS011;6358;50.760;0.282;2023-06-22T01:47:31;2.67;;;2.47;;
12585;SDS011;6358;50.760;0.282;2023-06-22T01:49:57;2.75;;;2.25;;
12585;SDS011;6358;50.760;0.282;2023-06-22T01:52:23;3.17;;;2.88;;
12585;SDS011;6358;50.760;0.282;2023-06-22T01:54:50;2.78;;;2.45;;
12585;SDS011;6358;50.760;0.282;2023-06-22T01:57:16;2.53;;;2.33;;
12585;SDS011;6358;50.760;0.282;2023-06-22T02:00:03;2.65;;;2.45;;
12585;SDS011;6358;50.760;0.282;2023-06-22T02:02:33;2.60;;;2.40;;
12585;SDS011;6358;50.760;0.282;2023-06-22T02:05:03;2.72;;;2.50;;
12585;SDS011;6358;50.760;0.282;2023-06-22T02:07:34;3.15;;;2.40;;
12585;SDS011;6358;50.760;0.282;2023-06-22T02:10:03;2.53;;;2.33;;
12585;SDS011;6358;50.760;0.282;2023-06-22T02:12:31;3.30;;;2.30;;
12585;SDS011;6358;50.760;0.282;2023-06-22T02:14:58;2.70;;;2.10;;
12585;SDS011;6358;50.760;0.282;2023-06-22T02:17:26;4.15;;;2.50;;
12585;SDS011;6358;50.760;0.282;2023-06-22T02:19:52;2.95;;;2.47;;
12585;SDS011;6358;50.760;0.282;2023-06-22T02:22:18;3.20;;;2.50;;
12585;SDS011;6358;50.760;0.282;2023-06-22T02:24:44;2.30;;;2.20;;
12585;SDS011;6358;50.760;0.282;2023-06-22T02:27:10;2.42;;;2.15;;
12585;SDS011;6358;50.760;0.282;2023-06-22T02:29:37;2.70;;;2.50;;
12585;SDS011;6358;50.760;0.282;2023-06-22T02:32:03;2.58;;;2.38;;
12585;SDS011;6358;50.760;0.282;2023-06-22T02:34:30;2.75;;;2.55;;
12585;SDS011;6358;50.760;0.282;2023-06-22T02:36:56;3.17;;;2.70;;
12585;SDS011;6358;50.760;0.282;2023-06-22T02:39:23;2.70;;;2.20;;
12585;SDS011;6358;50.760;0.282;2023-06-22T02:41:52;2.58;;;2.28;;
12585;SDS011;6358;50.760;0.282;2023-06-22T02:44:19;2.38;;;2.22;;
12585;SDS011;6358;50.760;0.282;2023-06-22T02:46:45;3.00;;;2.50;;
12585;SDS011;6358;50.760;0.282;2023-06-22T02:49:11;2.80;;;2.60;;
12585;SDS011;6358;50.760;0.282;2023-06-22T02:51:38;2.60;;;2.40;;
12585;SDS011;6358;50.760;0.282;2023-06-22T02:54:05;2.53;;;2.33;;
12585;SDS011;6358;50.760;0.282;2023-06-22T02:56:31;2.58;;;2.38;;
12585;SDS011;6358;50.760;0.282;2023-06-22T02:58:57;2.83;;;2.50;;
12585;SDS011;6358;50.760;0.282;2023-06-22T03:01:27;3.50;;;2.47;;
12585;SDS011;6358;50.760;0.282;2023-06-22T03:03:55;2.60;;;2.40;;
12585;SDS011;6358;50.760;0.282;2023-06-22T03:06:21;2.33;;;2.20;;
12585;SDS011;6358;50.760;0.282;2023-06-22T03:08:51;2.35;;;2.15;;
12585;SDS011;6358;50.760;0.282;2023-06-22T03:11:17;2.65;;;2.45;;
12585;SDS011;6358;50.760;0.282;2023-06-22T03:13:44;2.80;;;2.60;;
12585;SDS011;6358;50.760;0.282;2023-06-22T03:16:11;2.67;;;2.47;;
12585;SDS011;6358;50.760;0.282;2023-06-22T03:18:37;2.53;;;2.33;;
12585;SDS011;6358;50.760;0.282;2023-06-22T03:21:03;2.80;;;2.50;;
12585;SDS011;6358;50.760;0.282;2023-06-22T03:23:30;3.35;;;2.90;;
12585;SDS011;6358;50.760;0.282;2023-06-22T03:25:56;2.95;;;2.63;;
12585;SDS011;6358;50.760;0.282;2023-06-22T03:28:22;3.60;;;2.75;;
12585;SDS011;6358;50.760;0.282;2023-06-22T03:30:48;2.53;;;2.33;;
12585;SDS011;6358;50.760;0.282;2023-06-22T03:33:14;2.97;;;2.67;;
12585;SDS011;6358;50.760;0.282;2023-06-22T03:35:40;2.95;;;2.30;;
12585;SDS011;6358;50.760;0.282;2023-06-22T03:38:07;2.78;;;2.42;;
12585;SDS011;6358;50.760;0.282;2023-06-22T03:40:33;2.70;;;2.50;;
12585;SDS011;6358;50.760;0.282;2023-06-22T03:42:59;2.97;;;2.47;;
12585;SDS011;6358;50.760;0.282;2023-06-22T03:45:25;3.45;;;2.67;;
12585;SDS011;6358;50.760;0.282;2023-06-22T03:47:51;2.35;;;2.17;;
12585;SDS011;6358;50.760;0.282;2023-06-22T03:50:18;2.25;;;2.13;;
12585;SDS011;6358;50.760;0.282;2023-06-22T03:52:45;2.60;;;2.40;;
12585;SDS011;6358;50.760;0.282;2023-06-22T03:55:11;2.92;;;2.67;;
12585;SDS011;6358;50.760;0.282;2023-06-22T03:57:38;2.83;;;2.63;;
12585;SDS011;6358;50.760;0.282;2023-06-22T04:00:04;2.80;;;2.60;;
12585;SDS011;6358;50.760;0.282;2023-06-22T04:02:31;3.72;;;2.67;;
12585;SDS011;6358;50.760;0.282;2023-06-22T04:04:57;3.47;;;3.13;;
12585;SDS011;6358;50.760;0.282;2023-06-22T04:07:23;3.10;;;2.80;;
12585;SDS011;6358;50.760;0.282;2023-06-22T04:09:49;3.40;;;3.10;;
12585;SDS011;6358;50.760;0.282;2023-06-22T04:12:16;3.25;;;2.95;;
12585;SDS011;6358;50.760;0.282;2023-06-22T04:14:42;3.55;;;3.25;;
12585;SDS011;6358;50.760;0.282;2023-06-22T04:17:08;3.35;;;2.90;;
12585;SDS011;6358;50.760;0.282;2023-06-22T04:19:34;3.60;;;3.30;;
12585;SDS011;6358;50.760;0.282;2023-06-22T04:22:00;3.50;;;3.20;;
12585;SDS011;6358;50.760;0.282;2023-06-22T04:24:26;3.38;;;3.00;;
12585;SDS011;6358;50.760;0.282;2023-06-22T04:26:52;3.40;;;3.10;;
12585;SDS011;6358;50.760;0.282;2023-06-22T04:29:20;3.95;;;3.13;;
12585;SDS011;6358;50.760;0.282;2023-06-22T04:31:46;3.53;;;3.20;;
12585;SDS011;6358;50.760;0.282;2023-06-22T04:34:16;3.47;;;3.17;;
12585;SDS011;6358;50.760;0.282;2023-06-22T04:36:42;3.78;;;3.30;;
12585;SDS011;6358;50.760;0.282;2023-06-22T04:39:10;3.60;;;3.30;;
12585;SDS011;6358;50.760;0.282;2023-06-22T04:41:37;3.47;;;3.17;;
12585;SDS011;6358;50.760;0.282;2023-06-22T04:44:10;3.60;;;3.30;;
12585;SDS011;6358;50.760;0.282;2023-06-22T04:46:36;3.47;;;3.17;;
12585;SDS011;6358;50.760;0.282;2023-06-22T04:49:06;3.47;;;3.03;;
12585;SDS011;6358;50.760;0.282;2023-06-22T04:51:39;4.07;;;3.30;;
12585;SDS011;6358;50.760;0.282;2023-06-22T04:54:06;4.65;;;3.53;;
12585;SDS011;6358;50.760;0.282;2023-06-22T04:56:32;3.80;;;3.15;;
12585;SDS011;6358;50.760;0.282;2023-06-22T04:58:58;4.30;;;3.28;;
12585;SDS011;6358;50.760;0.282;2023-06-22T05:01:24;3.60;;;3.22;;
12585;SDS011;6358;50.760;0.282;2023-06-22T05:03:51;3.00;;;2.70;;
12585;SDS011;6358;50.760;0.282;2023-06-22T05:06:23;3.40;;;3.10;;
12585;SDS011;6358;50.760;0.282;2023-06-22T05:08:53;3.00;;;2.80;;
12585;SDS011;6358;50.760;0.282;2023-06-22T05:11:23;3.03;;;2.83;;
12585;SDS011;6358;50.760;0.282;2023-06-22T05:13:49;2.97;;;2.70;;
12585;SDS011;6358;50.760;0.282;2023-06-22T05:16:15;2.60;;;2.40;;
12585;SDS011;6358;50.760;0.282;2023-06-22T05:18:41;2.70;;;2.50;;
12585;SDS011;6358;50.760;0.282;2023-06-22T05:21:08;3.17;;;2.72;;
12585;SDS011;6358;50.760;0.282;2023-06-22T05:23:34;2.90;;;2.60;;
12585;SDS011;6358;50.760;0.282;2023-06-22T05:26:01;2.70;;;2.50;;
12585;SDS011;6358;50.760;0.282;2023-06-22T05:28:27;2.70;;;2.50;;
12585;SDS011;6358;50.760;0.282;2023-06-22T05:30:53;2.58;;;2.38;;
12585;SDS011;6358;50.760;0.282;2023-06-22T05:33:19;3.13;;;2.70;;
12585;SDS011;6358;50.760;0.282;2023-06-22T05:35:45;2.80;;;2.50;;
12585;SDS011;6358;50.760;0.282;2023-06-22T05:38:12;2.70;;;2.50;;
12585;SDS011;6358;50.760;0.282;2023-06-22T05:40:38;3.10;;;2.80;;
12585;SDS011;6358;50.760;0.282;2023-06-22T05:43:04;3.10;;;2.80;;
12585;SDS011;6358;50.760;0.282;2023-06-22T05:45:30;3.40;;;2.70;;
12585;SDS011;6358;50.760;0.282;2023-06-22T05:47:56;3.28;;;2.92;;
12585;SDS011;6358;50.760;0.282;2023-06-22T05:50:22;4.25;;;3.15;;
12585;SDS011;6358;50.760;0.282;2023-06-22T05:52:48;3.10;;;2.80;;
12585;SDS011;6358;50.760;0.282;2023-06-22T05:55:15;3.50;;;3.08;;
12585;SDS011;6358;50.760;0.282;2023-06-22T05:57:43;3.28;;;2.40;;
12585;SDS011;6358;50.760;0.282;2023-06-22T06:00:10;2.92;;;2.60;;
12585;SDS011;6358;50.760;0.282;2023-06-22T06:02:36;2.58;;;2.38;;
12585;SDS011;6358;50.760;0.282;2023-06-22T06:05:09;2.53;;;2.33;;
12585;SDS011;6358;50.760;0.282;2023-06-22T06:07:35;2.50;;;2.30;;
12585;SDS011;6358;50.760;0.282;2023-06-22T06:10:02;2.58;;;2.38;;
12585;SDS011;6358;50.760;0.282;2023-06-22T06:12:29;2.65;;;2.40;;
12585;SDS011;6358;50.760;0.282;2023-06-22T06:14:56;3.25;;;2.95;;
12585;SDS011;6358;50.760;0.282;2023-06-22T06:17:22;2.92;;;2.63;;
12585;SDS011;6358;50.760;0.282;2023-06-22T06:19:48;3.00;;;2.70;;
12585;SDS011;6358;50.760;0.282;2023-06-22T06:22:14;2.53;;;2.33;;
12585;SDS011;6358;50.760;0.282;2023-06-22T06:24:40;3.00;;;2.72;;
12585;SDS011;6358;50.760;0.282;2023-06-22T06:27:06;2.88;;;2.67;;
12585;SDS011;6358;50.760;0.282;2023-06-22T06:29:33;2.83;;;2.58;;
12585;SDS011;6358;50.760;0.282;2023-06-22T06:31:59;2.58;;;2.30;;
12585;SDS011;6358;50.760;0.282;2023-06-22T06:34:25;2.97;;;2.38;;
12585;SDS011;6358;50.760;0.282;2023-06-22T06:36:51;2.70;;;2.38;;
12585;SDS011;6358;50.760;0.282;2023-06-22T06:39:17;2.58;;;2.20;;
12585;SDS011;6358;50.760;0.282;2023-06-22T06:41:43;2.90;;;2.30;;
12585;SDS011;6358;50.760;0.282;2023-06-22T06:44:09;3.03;;;2.50;;
12585;SDS011;6358;50.760;0.282;2023-06-22T06:46:36;3.63;;;2.15;;
12585;SDS011;6358;50.760;0.282;2023-06-22T06:49:02;2.20;;;2.00;;
12585;SDS011;6358;50.760;0.282;2023-06-22T06:51:28;2.72;;;2.50;;
12585;SDS011;6358;50.760;0.282;2023-06-22T06:53:55;2.58;;;2.35;;
12585;SDS011;6358;50.760;0.282;2023-06-22T06:56:21;2.25;;;2.13;;
12585;SDS011;6358;50.760;0.282;2023-06-22T06:58:49;2.00;;;1.90;;
12585;SDS011;6358;50.760;0.282;2023-06-22T07:01:15;2.42;;;2.05;;
12585;SDS011;6358;50.760;0.282;2023-06-22T07:03:41;2.58;;;2.38;;
12585;SDS011;6358;50.760;0.282;2023-06-22T07:06:08;2.85;;;2.30;;
12585;SDS011;6358;50.760;0.282;2023-06-22T07:08:34;3.70;;;2.50;;
12585;SDS011;6358;50.760;0.282;2023-06-22T07:11:01;2.72;;;2.20;;
12585;SDS011;6358;50.760;0.282;2023-06-22T07:13:28;2.38;;;2.17;;
12585;SDS011;6358;50.760;0.282;2023-06-22T07:15:54;2.92;;;2.72;;
12585;SDS011;6358;50.760;0.282;2023-06-22T07:18:20;2.65;;;2.45;;
12585;SDS011;6358;50.760;0.282;2023-06-22T07:20:46;2.80;;;2.20;;
12585;SDS011;6358;50.760;0.282;2023-06-22T07:23:12;2.05;;;1.92;;
12585;SDS011;6358;50.760;0.282;2023-06-22T07:25:38;2.38;;;2.17;;
12585;SDS011;6358;50.760;0.282;2023-06-22T07:28:05;2.45;;;2.28;;
12585;SDS011;6358;50.760;0.282;2023-06-22T07:30:32;3.10;;;2.67;;
12585;SDS011;6358;50.760;0.282;2023-06-22T07:32:59;4.20;;;2.53;;
12585;SDS011;6358;50.760;0.282;2023-06-22T07:35:32;3.03;;;2.75;;
12585;SDS011;6358;50.760;0.282;2023-06-22T07:37:58;2.80;;;2.60;;
12585;SDS011;6358;50.760;0.282;2023-06-22T07:40:24;2.95;;;2.70;;
12585;SDS011;6358;50.760;0.282;2023-06-22T07:42:50;3.55;;;3.22;;
12585;SDS011;6358;50.760;0.282;2023-06-22T07:45:18;3.22;;;2.95;;
12585;SDS011;6358;50.760;0.282;2023-06-22T07:47:44;5.95;;;3.33;;
12585;SDS011;6358;50.760;0.282;2023-06-22T07:50:10;4.45;;;3.75;;
12585;SDS011;6358;50.760;0.282;2023-06-22T07:52:36;4.20;;;3.90;;
12585;SDS011;6358;50.760;0.282;2023-06-22T07:55:02;4.57;;;4.18;;
12585;SDS011;6358;50.760;0.282;2023-06-22T07:57:29;4.43;;;3.95;;
12585;SDS011;6358;50.760;0.282;2023-06-22T08:00:02;5.05;;;4.38;;
12585;SDS011;6358;50.760;0.282;2023-06-22T08:02:39;4.80;;;4.35;;
12585;SDS011;6358;50.760;0.282;2023-06-22T08:05:14;5.90;;;5.28;;
12585;SDS011;6358;50.760;0.282;2023-06-22T08:07:42;5.65;;;5.03;;
12585;SDS011;6358;50.760;0.282;2023-06-22T08:10:12;5.68;;;5.18;;
12585;SDS011;6358;50.760;0.282;2023-06-22T08:12:40;5.63;;;5.13;;
12585;SDS011;6358;50.760;0.282;2023-06-22T08:15:06;5.60;;;5.05;;
12585;SDS011;6358;50.760;0.282;2023-06-22T08:17:32;5.78;;;5.28;;
12585;SDS011;6358;50.760;0.282;2023-06-22T08:19:59;5.55;;;5.05;;
12585;SDS011;6358;50.760;0.282;2023-06-22T08:22:25;6.13;;;5.40;;
12585;SDS011;6358;50.760;0.282;2023-06-22T08:24:51;5.88;;;5.28;;
12585;SDS011;6358;50.760;0.282;2023-06-22T08:27:17;4.95;;;4.43;;
12585;SDS011;6358;50.760;0.282;2023-06-22T08:29:46;5.03;;;4.53;;
12585;SDS011;6358;50.760;0.282;2023-06-22T08:32:12;5.55;;;5.05;;
12585;SDS011;6358;50.760;0.282;2023-06-22T08:34:38;6.53;;;5.13;;
12585;SDS011;6358;50.760;0.282;2023-06-22T08:37:07;7.97;;;4.95;;
12585;SDS011;6358;50.760;0.282;2023-06-22T08:39:33;5.45;;;4.97;;
12585;SDS011;6358;50.760;0.282;2023-06-22T08:42:00;5.90;;;5.25;;
12585;SDS011;6358;50.760;0.282;2023-06-22T08:44:26;6.70;;;5.40;;
12585;SDS011;6358;50.760;0.282;2023-06-22T08:46:52;5.70;;;5.20;;
12585;SDS011;6358;50.760;0.282;2023-06-22T08:49:18;6.40;;;5.10;;
12585;SDS011;6358;50.760;0.282;2023-06-22T08:51:44;4.70;;;4.30;;
12585;SDS011;6358;50.760;0.282;2023-06-22T08:54:12;5.32;;;4.82;;
12585;SDS011;6358;50.760;0.282;2023-06-22T08:56:38;5.22;;;4.72;;
12585;SDS011;6358;50.760;0.282;2023-06-22T08:59:05;4.78;;;4.38;;
12585;SDS011;6358;50.760;0.282;2023-06-22T09:01:32;4.78;;;4.30;;
12585;SDS011;6358;50.760;0.282;2023-06-22T09:03:58;5.05;;;4.57;;
12585;SDS011;6358;50.760;0.282;2023-06-22T09:06:25;4.88;;;4.38;;
12585;SDS011;6358;50.760;0.282;2023-06-22T09:08:51;6.75;;;4.90;;
12585;SDS011;6358;50.760;0.282;2023-06-22T09:11:17;5.63;;;4.65;;
12585;SDS011;6358;50.760;0.282;2023-06-22T09:13:43;4.85;;;4.03;;
12585;SDS011;6358;50.760;0.282;2023-06-22T09:16:09;4.60;;;4.22;;
12585;SDS011;6358;50.760;0.282;2023-06-22T09:18:37;4.55;;;4.13;;
12585;SDS011;6358;50.760;0.282;2023-06-22T09:21:03;4.70;;;4.15;;
12585;SDS011;6358;50.760;0.282;2023-06-22T09:23:29;5.03;;;4.13;;
12585;SDS011;6358;50.760;0.282;2023-06-22T09:25:55;4.28;;;3.83;;
12585;SDS011;6358;50.760;0.282;2023-06-22T09:28:21;4.13;;;3.78;;
12585;SDS011;6358;50.760;0.282;2023-06-22T09:30:47;4.38;;;3.97;;
12585;SDS011;6358;50.760;0.282;2023-06-22T09:33:13;4.82;;;3.55;;
12585;SDS011;6358;50.760;0.282;2023-06-22T09:35:39;4.63;;;3.90;;
12585;SDS011;6358;50.760;0.282;2023-06-22T09:38:05;4.20;;;3.70;;
12585;SDS011;6358;50.760;0.282;2023-06-22T09:40:31;3.83;;;3.47;;
12585;SDS011;6358;50.760;0.282;2023-06-22T09:43:00;4.20;;;3.60;;
12585;SDS011;6358;50.760;0.282;2023-06-22T09:45:26;4.30;;;3.90;;
12585;SDS011;6358;50.760;0.282;2023-06-22T09:47:52;4.40;;;3.22;;
12585;SDS011;6358;50.760;0.282;2023-06-22T09:50:18;4.13;;;3.72;;
12585;SDS011;6358;50.760;0.282;2023-06-22T09:52:45;4.32;;;3.83;;
12585;SDS011;6358;50.760;0.282;2023-06-22T09:55:15;4.10;;;3.70;;
12585;SDS011;6358;50.760;0.282;2023-06-22T09:57:41;4.53;;;4.10;;
12585;SDS011;6358;50.760;0.282;2023-06-22T10:00:09;4.30;;;3.90;;
12585;SDS011;6358;50.760;0.282;2023-06-22T10:02:38;4.50;;;4.10;;
12585;SDS011;6358;50.760;0.282;2023-06-22T10:05:04;4.00;;;3.70;;
12585;SDS011;6358;50.760;0.282;2023-06-22T10:07:30;4.43;;;4.10;;
12585;SDS011;6358;50.760;0.282;2023-06-22T10:09:56;4.75;;;4.30;;
12585;SDS011;6358;50.760;0.282;2023-06-22T10:12:22;4.50;;;4.10;;
12585;SDS011;6358;50.760;0.282;2023-06-22T10:14:48;4.18;;;3.88;;
12585;SDS011;6358;50.760;0.282;2023-06-22T10:17:14;4.65;;;3.83;;
12585;SDS011;6358;50.760;0.282;2023-06-22T10:19:40;4.40;;;4.00;;
12585;SDS011;6358;50.760;0.282;2023-06-22T10:22:06;3.95;;;3.65;;
12585;SDS011;6358;50.760;0.282;2023-06-22T10:24:33;3.95;;;3.60;;
12585;SDS011;6358;50.760;0.282;2023-06-22T10:26:59;4.35;;;4.03;;
12585;SDS011;6358;50.760;0.282;2023-06-22T10:29:25;4.55;;;4.15;;
12585;SDS011;6358;50.760;0.282;2023-06-22T10:31:51;4.47;;;4.07;;
12585;SDS011;6358;50.760;0.282;2023-06-22T10:34:17;5.30;;;4.00;;
12585;SDS011;6358;50.760;0.282;2023-06-22T10:36:43;4.40;;;4.00;;
12585;SDS011;6358;50.760;0.282;2023-06-22T10:39:13;5.90;;;4.25;;
12585;SDS011;6358;50.760;0.282;2023-06-22T10:41:40;7.07;;;4.72;;
12585;SDS011;6358;50.760;0.282;2023-06-22T10:44:06;6.40;;;4.15;;
12585;SDS011;6358;50.760;0.282;2023-06-22T10:46:32;5.15;;;4.20;;
12585;SDS011;6358;50.760;0.282;2023-06-22T10:48:58;4.95;;;4.43;;
12585;SDS011;6358;50.760;0.282;2023-06-22T10:51:24;8.00;;;4.90;;
12585;SDS011;6358;50.760;0.282;2023-06-22T10:53:51;5.00;;;4.50;;
12585;SDS011;6358;50.760;0.282;2023-06-22T10:56:17;5.72;;;4.40;;
12585;SDS011;6358;50.760;0.282;2023-06-22T10:58:44;5.13;;;4.57;;
12585;SDS011;6358;50.760;0.282;2023-06-22T11:01:10;5.15;;;4.47;;
12585;SDS011;6358;50.760;0.282;2023-06-22T11:03:37;7.55;;;4.80;;
12585;SDS011;6358;50.760;0.282;2023-06-22T11:06:03;5.97;;;5.10;;
12585;SDS011;6358;50.760;0.282;2023-06-22T11:08:29;8.90;;;4.60;;
12585;SDS011;6358;50.760;0.282;2023-06-22T11:10:55;9.82;;;6.43;;
12585;SDS011;6358;50.760;0.282;2023-06-22T11:13:21;7.05;;;4.63;;
12585;SDS011;6358;50.760;0.282;2023-06-22T11:15:47;4.65;;;3.97;;
12585;SDS011;6358;50.760;0.282;2023-06-22T11:18:13;6.10;;;5.28;;
12585;SDS011;6358;50.760;0.282;2023-06-22T11:20:39;6.55;;;5.20;;
12585;SDS011;6358;50.760;0.282;2023-06-22T11:23:05;7.05;;;5.32;;
12585;SDS011;6358;50.760;0.282;2023-06-22T11:25:32;6.07;;;4.95;;
12585;SDS011;6358;50.760;0.282;2023-06-22T11:28:01;36.67;;;7.18;;
12585;SDS011;6358;50.760;0.282;2023-06-22T11:30:27;6.82;;;5.07;;
12585;SDS011;6358;50.760;0.282;2023-06-22T11:32:53;9.85;;;4.97;;
12585;SDS011;6358;50.760;0.282;2023-06-22T11:35:19;9.95;;;5.15;;
12585;SDS011;6358;50.760;0.282;2023-06-22T11:37:45;5.65;;;4.35;;
12585;SDS011;6358;50.760;0.282;2023-06-22T11:40:12;6.18;;;4.65;;
12585;SDS011;6358;50.760;0.282;2023-06-22T11:42:38;6.05;;;4.50;;
12585;SDS011;6358;50.760;0.282;2023-06-22T11:45:04;5.53;;;4.32;;
12585;SDS011;6358;50.760;0.282;2023-06-22T11:47:30;6.22;;;4.53;;
12585;SDS011;6358;50.760;0.282;2023-06-22T11:49:56;6.82;;;4.28;;
12585;SDS011;6358;50.760;0.282;2023-06-22T11:52:22;4.32;;;3.92;;
12585;SDS011;6358;50.760;0.282;2023-06-22T11:54:48;4.82;;;4.28;;
12585;SDS011;6358;50.760;0.282;2023-06-22T11:57:14;6.88;;;4.25;;
12585;SDS011;6358;50.760;0.282;2023-06-22T11:59:41;4.82;;;4.40;;
12585;SDS011;6358;50.760;0.282;2023-06-22T12:02:07;5.80;;;4.18;;
12585;SDS011;6358;50.760;0.282;2023-06-22T12:04:34;4.47;;;4.03;;
12585;SDS011;6358;50.760;0.282;2023-06-22T12:07:00;6.30;;;4.47;;
12585;SDS011;6358;50.760;0.282;2023-06-22T12:09:27;4.90;;;4.25;;
12585;SDS011;6358;50.760;0.282;2023-06-22T12:11:53;5.63;;;4.47;;
12585;SDS011;6358;50.760;0.282;2023-06-22T12:14:19;6.65;;;4.45;;
12585;SDS011;6358;50.760;0.282;2023-06-22T12:16:45;5.25;;;4.00;;
12585;SDS011;6358;50.760;0.282;2023-06-22T12:19:11;4.13;;;3.72;;
12585;SDS011;6358;50.760;0.282;2023-06-22T12:21:38;4.07;;;3.67;;
12585;SDS011;6358;50.760;0.282;2023-06-22T12:24:05;6.70;;;3.80;;
12585;SDS011;6358;50.760;0.282;2023-06-22T12:26:31;5.35;;;3.55;;
12585;SDS011;6358;50.760;0.282;2023-06-22T12:28:58;6.88;;;3.83;;
12585;SDS011;6358;50.760;0.282;2023-06-22T12:31:24;4.07;;;3.67;;
12585;SDS011;6358;50.760;0.282;2023-06-22T12:33:50;4.07;;;3.67;;
12585;SDS011;6358;50.760;0.282;2023-06-22T12:36:16;4.68;;;3.40;;
12585;SDS011;6358;50.760;0.282;2023-06-22T12:38:42;5.85;;;3.40;;
12585;SDS011;6358;50.760;0.282;2023-06-22T12:41:08;3.70;;;3.40;;
12585;SDS011;6358;50.760;0.282;2023-06-22T12:43:34;4.20;;;3.83;;
12585;SDS011;6358;50.760;0.282;2023-06-22T12:46:00;5.72;;;3.95;;
12585;SDS011;6358;50.760;0.282;2023-06-22T12:48:28;5.95;;;4.15;;
12585;SDS011;6358;50.760;0.282;2023-06-22T12:50:54;5.97;;;4.00;;
12585;SDS011;6358;50.760;0.282;2023-06-22T12:53:20;4.03;;;3.63;;
12585;SDS011;6358;50.760;0.282;2023-06-22T12:55:48;5.90;;;4.55;;
12585;SDS011;6358;50.760;0.282;2023-06-22T12:58:14;6.13;;;4.15;;
12585;SDS011;6358;50.760;0.282;2023-06-22T13:00:41;4.47;;;4.03;;
12585;SDS011;6358;50.760;0.282;2023-06-22T13:03:07;5.00;;;4.43;;
12585;SDS011;6358;50.760;0.282;2023-06-22T13:05:33;7.07;;;4.38;;
12585;SDS011;6358;50.760;0.282;2023-06-22T13:08:01;4.55;;;4.15;;
12585;SDS011;6358;50.760;0.282;2023-06-22T13:10:27;4.80;;;4.30;;
12585;SDS011;6358;50.760;0.282;2023-06-22T13:12:53;5.20;;;4.53;;
12585;SDS011;6358;50.760;0.282;2023-06-22T13:15:25;4.90;;;4.50;;
12585;SDS011;6358;50.760;0.282;2023-06-22T13:17:51;5.78;;;4.28;;
12585;SDS011;6358;50.760;0.282;2023-06-22T13:20:17;5.25;;;4.70;;
12585;SDS011;6358;50.760;0.282;2023-06-22T13:22:43;4.72;;;4.30;;
12585;SDS011;6358;50.760;0.282;2023-06-22T13:25:10;4.80;;;4.30;;
12585;SDS011;6358;50.760;0.282;2023-06-22T13:27:40;5.65;;;5.00;;
12585;SDS011;6358;50.760;0.282;2023-06-22T13:30:07;4.80;;;4.38;;
12585;SDS011;6358;50.760;0.282;2023-06-22T13:32:33;5.53;;;4.90;;
12585;SDS011;6358;50.760;0.282;2023-06-22T13:34:59;5.47;;;4.78;;
12585;SDS011;6358;50.760;0.282;2023-06-22T13:37:25;5.90;;;5.18;;
12585;SDS011;6358;50.760;0.282;2023-06-22T13:39:52;5.72;;;5.13;;
12585;SDS011;6358;50.760;0.282;2023-06-22T13:42:21;5.80;;;5.20;;
12585;SDS011;6358;50.760;0.282;2023-06-22T13:44:47;5.82;;;5.00;;
12585;SDS011;6358;50.760;0.282;2023-06-22T13:47:13;5.78;;;5.18;;
12585;SDS011;6358;50.760;0.282;2023-06-22T13:49:39;5.22;;;4.53;;
12585;SDS011;6358;50.760;0.282;2023-06-22T13:52:05;7.00;;;5.05;;
12585;SDS011;6358;50.760;0.282;2023-06-22T13:54:35;5.93;;;4.57;;
12585;SDS011;6358;50.760;0.282;2023-06-22T13:57:02;7.28;;;4.80;;
12585;SDS011;6358;50.760;0.282;2023-06-22T13:59:28;5.18;;;4.68;;
12585;SDS011;6358;50.760;0.282;2023-06-22T14:01:54;5.43;;;4.63;;
12585;SDS011;6358;50.760;0.282;2023-06-22T14:04:21;5.25;;;4.55;;
12585;SDS011;6358;50.760;0.282;2023-06-22T14:06:47;6.43;;;5.00;;
12585;SDS011;6358;50.760;0.282;2023-06-22T14:09:13;5.88;;;4.70;;
12585;SDS011;6358;50.760;0.282;2023-06-22T14:11:39;6.03;;;4.95;;
12585;SDS011;6358;50.760;0.282;2023-06-22T14:14:05;5.72;;;5.20;;
12585;SDS011;6358;50.760;0.282;2023-06-22T14:16:31;4.57;;;4.18;;
12585;SDS011;6358;50.760;0.282;2023-06-22T14:18:58;6.72;;;4.38;;
12585;SDS011;6358;50.760;0.282;2023-06-22T14:21:25;5.13;;;4.60;;
12585;SDS011;6358;50.760;0.282;2023-06-22T14:23:51;5.40;;;4.90;;
12585;SDS011;6358;50.760;0.282;2023-06-22T14:26:17;5.07;;;4.63;;
12585;SDS011;6358;50.760;0.282;2023-06-22T14:28:45;5.03;;;4.53;;
12585;SDS011;6358;50.760;0.282;2023-06-22T14:31:16;4.53;;;4.13;;
12585;SDS011;6358;50.760;0.282;2023-06-22T14:33:48;5.72;;;4.57;;
12585;SDS011;6358;50.760;0.282;2023-06-22T14:36:17;4.78;;;4.22;;
12585;SDS011;6358;50.760;0.282;2023-06-22T14:38:44;4.65;;;4.25;;
12585;SDS011;6358;50.760;0.282;2023-06-22T14:41:11;6.55;;;4.70;;
12585;SDS011;6358;50.760;0.282;2023-06-22T14:43:37;4.72;;;4.22;;
12585;SDS011;6358;50.760;0.282;2023-06-22T14:46:03;4.90;;;4.50;;
12585;SDS011;6358;50.760;0.282;2023-06-22T14:48:29;5.25;;;4.30;;
12585;SDS011;6358;50.760;0.282;2023-06-22T14:50:55;5.47;;;4.30;;
12585;SDS011;6358;50.760;0.282;2023-06-22T14:53:21;4.88;;;4.47;;
12585;SDS011;6358;50.760;0.282;2023-06-22T14:55:48;5.40;;;4.43;;
12585;SDS011;6358;50.760;0.282;2023-06-22T14:58:14;5.30;;;4.53;;
12585;SDS011;6358;50.760;0.282;2023-06-22T15:00:40;5.60;;;4.53;;
12585;SDS011;6358;50.760;0.282;2023-06-22T15:03:06;4.95;;;4.43;;